createdAt,value
2018-07-28T00:01:55.719Z,10.10
2018-07-28T00:04:23.555Z,10.48
2018-07-28T00:06:51.589Z,9.83
2018-07-28T00:09:19.609Z,9.60
2018-07-28T00:11:47.636Z,9.90
2018-07-28T00:14:15.660Z,9.43
2018-07-28T00:16:43.503Z,10.00
2018-07-28T00:19:11.560Z,10.40
2018-07-28T00:21:39.604Z,9.93
2018-07-28T00:24:07.644Z,9.60
2018-07-28T00:26:35.680Z,10.65
2018-07-28T00:29:03.732Z,10.72
2018-07-28T00:31:31.774Z,10.15
2018-07-28T00:33:59.604Z,10.20
2018-07-28T00:36:27.627Z,10.60
2018-07-28T00:38:55.668Z,10.83
2018-07-28T00:41:23.500Z,10.80
2018-07-28T00:43:51.649Z,10.30
2018-07-28T00:46:19.688Z,10.45
2018-07-28T00:48:47.731Z,10.70
2018-07-28T00:51:15.759Z,11.18
2018-07-28T00:53:43.784Z,10.38
2018-07-28T00:56:11.623Z,11.22
2018-07-28T00:58:39.684Z,10.82
2018-07-28T01:01:07.731Z,11.85
2018-07-28T01:03:35.789Z,11.35
2018-07-28T01:06:03.816Z,10.80
2018-07-28T01:08:31.873Z,10.70
2018-07-28T01:10:59.915Z,11.30
2018-07-28T01:13:27.952Z,11.35
2018-07-28T01:15:55.992Z,10.93
2018-07-28T01:18:24.012Z,11.12
2018-07-28T01:20:52.052Z,10.98
2018-07-28T01:23:20.072Z,11.28
2018-07-28T01:25:48.085Z,11.38
2018-07-28T01:28:15.995Z,12.25
2018-07-28T01:30:44.096Z,12.07
2018-07-28T01:33:12.129Z,11.55
2018-07-28T01:35:40.155Z,11.80
2018-07-28T01:38:08.179Z,11.60
2018-07-28T01:40:36.213Z,12.30
2018-07-28T01:43:04.243Z,11.77
2018-07-28T01:45:32.283Z,13.10
2018-07-28T01:48:00.329Z,12.03
2018-07-28T01:50:28.364Z,13.40
2018-07-28T01:52:56.408Z,13.20
2018-07-28T01:55:24.428Z,11.75
2018-07-28T01:57:52.265Z,12.80
2018-07-28T02:00:20.288Z,12.63
2018-07-28T02:02:48.318Z,12.57
2018-07-28T02:05:16.356Z,12.67
2018-07-28T02:07:44.410Z,11.80
2018-07-28T02:10:12.437Z,13.08
2018-07-28T02:12:40.496Z,12.40
2018-07-28T02:15:09.064Z,12.82
2018-07-28T02:17:37.140Z,12.65
2018-07-28T02:20:06.012Z,12.93
2018-07-28T02:22:34.040Z,13.32
2018-07-28T02:25:02.092Z,12.30
2018-07-28T02:27:29.941Z,13.58
2018-07-28T02:29:58.012Z,13.30
2018-07-28T02:32:26.049Z,13.38
2018-07-28T02:34:54.092Z,13.32
2018-07-28T02:37:22.145Z,13.50
2018-07-28T02:39:50.339Z,13.25
2018-07-28T02:42:18.375Z,13.15
2018-07-28T02:44:46.408Z,13.00
2018-07-28T02:47:14.446Z,13.10
2018-07-28T02:49:42.477Z,13.80
2018-07-28T02:52:10.540Z,13.83
2018-07-28T02:54:38.544Z,13.30
2018-07-28T02:57:06.650Z,14.63
2018-07-28T02:59:34.672Z,13.58
2018-07-28T03:02:02.760Z,13.45
2018-07-28T03:04:30.800Z,13.10
2018-07-28T03:06:58.891Z,12.90
2018-07-28T03:09:26.724Z,13.32
2018-07-28T03:11:54.801Z,13.15
2018-07-28T03:14:22.934Z,13.05
2018-07-28T03:16:50.979Z,13.40
2018-07-28T03:19:19.008Z,13.40
2018-07-28T03:21:47.028Z,13.03
2018-07-28T03:24:15.069Z,14.30
2018-07-28T03:26:43.097Z,14.00
2018-07-28T03:29:11.125Z,13.30
2018-07-28T03:31:38.960Z,13.93
2018-07-28T03:34:07.068Z,14.10
2018-07-28T03:36:35.096Z,14.50
2018-07-28T03:39:03.230Z,14.30
2018-07-28T03:41:31.231Z,14.30
2018-07-28T03:43:59.267Z,14.28
2018-07-28T03:46:27.283Z,14.13
2018-07-28T03:48:55.311Z,13.48
2018-07-28T03:51:23.357Z,14.40
2018-07-28T03:53:51.408Z,13.70
2018-07-28T03:56:19.450Z,14.23
2018-07-28T03:58:47.592Z,14.23
2018-07-28T04:01:15.615Z,13.38
2018-07-28T04:03:43.700Z,14.23
2018-07-28T04:06:11.771Z,14.25
2018-07-28T04:08:39.610Z,14.40
2018-07-28T04:11:07.648Z,14.30
2018-07-28T04:13:35.680Z,14.05
2018-07-28T04:16:03.795Z,14.10
2018-07-28T04:18:31.836Z,14.83
2018-07-28T04:20:59.844Z,13.22
2018-07-28T04:23:27.878Z,14.00
2018-07-28T04:25:55.921Z,14.18
2018-07-28T04:28:23.757Z,15.10
2018-07-28T04:30:51.785Z,14.40
2018-07-28T04:33:19.812Z,14.68
2018-07-28T04:35:47.833Z,14.70
2018-07-28T04:38:15.847Z,14.65
2018-07-28T04:40:43.880Z,15.90
2018-07-28T04:43:11.928Z,15.30
2018-07-28T04:45:39.956Z,14.10
2018-07-28T04:48:08.012Z,14.65
2018-07-28T04:50:36.055Z,13.95
2018-07-28T04:53:04.126Z,14.93
2018-07-28T04:55:32.180Z,14.68
2018-07-28T04:58:00.224Z,14.75
2018-07-28T05:00:28.064Z,16.10
2018-07-28T05:02:56.116Z,21.15
2018-07-28T05:05:24.275Z,14.83
2018-07-28T05:07:52.296Z,18.82
2018-07-28T05:10:20.351Z,15.78
2018-07-28T05:12:48.404Z,17.10
2018-07-28T05:15:16.416Z,14.33
2018-07-28T05:17:44.247Z,13.65
2018-07-28T05:20:12.296Z,19.35
2018-07-28T05:22:40.327Z,17.70
2018-07-28T05:25:08.156Z,15.58
2018-07-28T05:27:36.196Z,14.25
2018-07-28T05:30:06.888Z,15.45
2018-07-28T05:32:34.731Z,17.12
2018-07-28T05:35:02.820Z,15.60
2018-07-28T05:37:30.836Z,14.83
2018-07-28T05:39:58.867Z,16.43
2018-07-28T05:42:26.735Z,15.50
2018-07-28T05:44:54.749Z,14.55
2018-07-28T05:47:22.790Z,14.33
2018-07-28T05:49:50.832Z,13.62
2018-07-28T05:52:18.873Z,13.90
2018-07-28T05:54:46.913Z,14.98
2018-07-28T05:57:14.952Z,22.05
2018-07-28T05:59:42.983Z,16.07
2018-07-28T06:02:11.045Z,16.27
2018-07-28T06:04:39.075Z,18.40
2018-07-28T06:07:07.151Z,20.00
2018-07-28T06:09:35.202Z,15.88
2018-07-28T06:12:03.348Z,15.60
2018-07-28T06:14:31.399Z,16.95
2018-07-28T06:16:59.785Z,16.32
2018-07-28T06:19:27.823Z,14.20
2018-07-28T06:21:55.862Z,14.50
2018-07-28T06:24:23.693Z,13.50
2018-07-28T06:26:51.734Z,13.78
2018-07-28T06:29:19.780Z,13.22
2018-07-28T06:31:47.866Z,13.95
2018-07-28T06:34:15.847Z,17.27
2018-07-28T06:36:43.884Z,17.52
2018-07-28T06:39:13.472Z,14.53
2018-07-28T06:41:41.541Z,14.40
2018-07-28T06:44:09.696Z,13.60
2018-07-28T06:46:38.180Z,14.20
2018-07-28T06:49:06.583Z,12.60
2018-07-28T06:51:34.612Z,12.58
2018-07-28T06:54:02.661Z,13.18
2018-07-28T06:56:30.977Z,12.15
2018-07-28T06:58:59.098Z,12.55
2018-07-28T07:01:27.124Z,11.48
2018-07-28T07:03:55.472Z,11.20
2018-07-28T07:06:23.510Z,12.17
2018-07-28T07:08:51.539Z,12.03
2018-07-28T07:11:19.583Z,10.48
2018-07-28T07:13:47.628Z,12.30
2018-07-28T07:16:15.669Z,11.20
2018-07-28T07:18:43.712Z,12.13
2018-07-28T07:21:11.760Z,12.28
2018-07-28T07:23:39.776Z,14.20
2018-07-28T07:26:07.884Z,13.38
2018-07-28T07:28:35.903Z,13.60
2018-07-28T07:31:04.091Z,14.93
2018-07-28T07:33:31.959Z,14.90
2018-07-28T07:35:59.990Z,12.97
2018-07-28T07:38:28.021Z,12.88
2018-07-28T07:40:56.089Z,12.98
2018-07-28T07:43:24.131Z,12.98
2018-07-28T07:45:52.175Z,13.20
2018-07-28T07:48:20.200Z,13.60
2018-07-28T07:50:48.216Z,14.83
2018-07-28T07:53:16.223Z,14.28
2018-07-28T07:55:44.256Z,12.50
2018-07-28T07:58:12.300Z,12.00
2018-07-28T08:00:40.295Z,12.37
2018-07-28T08:03:08.320Z,12.93
2018-07-28T08:05:36.356Z,11.83
2018-07-28T08:08:04.585Z,11.97
2018-07-28T08:10:32.612Z,12.05
2018-07-28T08:13:00.619Z,11.88
2018-07-28T08:15:28.639Z,16.60
2018-07-28T08:17:56.668Z,11.90
2018-07-28T08:20:24.674Z,11.90
2018-07-28T08:22:52.688Z,11.90
2018-07-28T08:25:20.728Z,11.90
2018-07-28T08:27:48.772Z,11.95
2018-07-28T08:30:16.812Z,12.75
2018-07-28T08:32:44.832Z,12.53
2018-07-28T08:35:12.849Z,12.35
2018-07-28T08:37:40.920Z,12.97
2018-07-28T08:40:08.934Z,13.30
2018-07-28T08:42:36.952Z,12.82
2018-07-28T08:45:05.701Z,13.18
2018-07-28T08:47:33.712Z,13.15
2018-07-28T08:50:01.741Z,16.57
2018-07-28T08:52:29.755Z,29.55
2018-07-28T08:54:57.787Z,14.18
2018-07-28T08:57:25.811Z,16.60
2018-07-28T08:59:53.832Z,13.90
2018-07-28T09:02:21.663Z,13.43
2018-07-28T09:04:49.696Z,18.75
2018-07-28T09:07:17.743Z,14.60
2018-07-28T09:09:45.752Z,15.90
2018-07-28T09:12:14.000Z,17.48
2018-07-28T09:14:42.035Z,16.12
2018-07-28T09:17:10.123Z,15.13
2018-07-28T09:19:38.145Z,12.20
2018-07-28T09:22:06.176Z,17.12
2018-07-28T09:24:34.207Z,15.10
2018-07-28T09:27:02.284Z,13.30
2018-07-28T09:29:30.317Z,11.95
2018-07-28T09:31:58.331Z,11.20
2018-07-28T09:34:26.352Z,11.68
2018-07-28T09:36:54.439Z,11.00
2018-07-28T09:39:22.380Z,11.93
2018-07-28T09:41:50.412Z,11.30
2018-07-28T09:44:18.428Z,15.58
2018-07-28T09:46:46.461Z,12.05
2018-07-28T09:49:14.295Z,9.73
2018-07-28T09:51:42.315Z,10.63
2018-07-28T09:54:10.336Z,11.00
2018-07-28T09:56:38.371Z,9.20
2018-07-28T09:59:06.380Z,9.20
2018-07-28T10:01:34.411Z,24.07
2018-07-28T10:04:02.420Z,17.63
2018-07-28T10:06:30.439Z,8.18
2018-07-28T10:08:58.497Z,9.18
2018-07-28T10:11:26.504Z,9.10
2018-07-28T10:13:54.519Z,8.50
2018-07-28T10:16:22.374Z,10.20
2018-07-28T10:18:50.380Z,8.10
2018-07-28T10:21:18.377Z,12.37
2018-07-28T10:23:46.384Z,8.07
2018-07-28T10:26:14.403Z,8.40
2018-07-28T10:28:42.436Z,8.55
2018-07-28T10:31:10.279Z,7.50
2018-07-28T10:33:38.344Z,12.23
2018-07-28T10:36:06.447Z,7.55
2018-07-28T10:38:34.281Z,10.08
2018-07-28T10:41:02.296Z,8.37
2018-07-28T10:43:30.324Z,7.65
2018-07-28T10:45:58.352Z,7.70
2018-07-28T10:48:26.365Z,7.50
2018-07-28T10:51:00.872Z,8.33
2018-07-28T10:53:28.901Z,9.70
2018-07-28T10:55:56.971Z,7.00
2018-07-28T10:58:25.016Z,8.50
2018-07-28T11:00:53.169Z,9.73
2018-07-28T11:03:21.336Z,6.90
2018-07-28T11:05:49.356Z,7.20
2018-07-28T11:08:17.385Z,12.13
2018-07-28T11:10:45.416Z,7.05
2018-07-28T11:13:13.424Z,7.00
2018-07-28T11:15:41.435Z,6.80
2018-07-28T11:18:09.488Z,7.03
2018-07-28T11:20:37.508Z,6.80
2018-07-28T11:23:05.540Z,6.33
2018-07-28T11:25:33.351Z,7.73
2018-07-28T11:28:01.420Z,6.50
2018-07-28T11:30:29.471Z,6.85
2018-07-28T11:33:09.280Z,7.20
2018-07-28T11:35:48.807Z,6.70
2018-07-28T11:38:28.626Z,6.53
2018-07-28T11:41:08.683Z,10.00
2018-07-28T11:43:48.384Z,7.72
2018-07-28T11:46:16.402Z,7.90
2018-07-28T11:48:44.430Z,7.85
2018-07-28T11:51:12.480Z,7.25
2018-07-28T11:53:40.713Z,8.00
2018-07-28T11:56:08.719Z,7.72
2018-07-28T11:58:36.576Z,8.10
2018-07-28T12:01:05.029Z,9.40
2018-07-28T12:03:33.209Z,8.35
2018-07-28T12:06:01.211Z,8.17
2018-07-28T12:08:29.270Z,8.00
2018-07-28T12:10:57.083Z,7.47
2018-07-28T12:13:25.127Z,8.77
2018-07-28T12:15:53.167Z,9.30
2018-07-28T12:18:21.370Z,8.45
2018-07-28T12:20:49.222Z,7.08
2018-07-28T12:23:17.241Z,12.70
2018-07-28T12:25:45.296Z,8.23
2018-07-28T12:28:13.336Z,8.20
2018-07-28T12:30:41.356Z,9.93
2018-07-28T12:33:09.404Z,7.42
2018-07-28T12:35:37.428Z,7.10
2018-07-28T12:38:05.255Z,8.23
2018-07-28T12:40:33.281Z,7.22
2018-07-28T12:43:01.324Z,14.65
2018-07-28T12:45:29.347Z,8.10
2018-07-28T12:47:57.399Z,8.30
2018-07-28T12:50:25.436Z,8.38
2018-07-28T12:52:53.440Z,8.33
2018-07-28T12:55:21.541Z,7.10
2018-07-28T12:57:49.496Z,8.85
2018-07-28T13:00:17.496Z,7.10
2018-07-28T13:02:45.520Z,8.27
2018-07-28T13:05:13.540Z,6.92
2018-07-28T13:07:41.576Z,7.20
2018-07-28T13:10:09.842Z,8.10
2018-07-28T13:12:37.936Z,7.40
2018-07-28T13:15:06.359Z,7.60
2018-07-28T13:17:34.596Z,7.43
2018-07-28T13:20:02.624Z,8.05
2018-07-28T13:22:30.679Z,7.65
2018-07-28T13:24:58.499Z,7.60
2018-07-28T13:27:26.588Z,8.00
2018-07-28T13:29:54.676Z,8.45
2018-07-28T13:32:22.619Z,8.77
2018-07-28T13:34:50.645Z,7.78
2018-07-28T13:37:18.648Z,8.00
2018-07-28T13:39:46.670Z,12.75
2018-07-28T13:42:14.675Z,10.50
2018-07-28T13:44:42.660Z,10.63
2018-07-28T13:47:10.701Z,11.33
2018-07-28T13:49:38.732Z,10.45
2018-07-28T13:52:06.752Z,11.50
2018-07-28T13:54:34.825Z,11.30
2018-07-28T13:57:02.865Z,13.30
2018-07-28T13:59:30.742Z,16.17
2018-07-28T14:01:58.772Z,17.00
2018-07-28T14:04:26.799Z,16.50
2018-07-28T14:06:55.779Z,16.60
2018-07-28T14:09:24.997Z,16.32
2018-07-28T14:11:53.078Z,17.23
2018-07-28T14:14:21.108Z,16.70
2018-07-28T14:16:49.153Z,18.07
2018-07-28T14:19:17.184Z,17.10
2018-07-28T14:21:45.209Z,16.80
2018-07-28T14:24:13.231Z,17.00
2018-07-28T14:26:41.240Z,17.55
2018-07-28T14:29:09.088Z,17.90
2018-07-28T14:31:37.214Z,19.12
2018-07-28T14:34:05.259Z,18.82
2018-07-28T14:36:33.305Z,19.23
2018-07-28T14:39:01.317Z,18.98
2018-07-28T14:41:29.640Z,19.65
2018-07-28T14:43:57.676Z,21.37
2018-07-28T14:46:25.708Z,19.65
2018-07-28T14:48:53.540Z,20.88
2018-07-28T14:51:21.624Z,15.00
2018-07-28T14:53:49.672Z,17.50
2018-07-28T14:56:17.688Z,16.05
2018-07-28T14:58:45.523Z,13.62
2018-07-28T15:01:13.607Z,13.98
2018-07-28T15:03:41.570Z,13.80
2018-07-28T15:06:09.580Z,15.10
2018-07-28T15:08:37.613Z,16.10
2018-07-28T15:11:05.644Z,15.63
2018-07-28T15:13:33.692Z,16.17
2018-07-28T15:16:01.720Z,16.60
2018-07-28T15:18:29.744Z,17.80
2018-07-28T15:20:57.749Z,14.80
2018-07-28T15:23:25.758Z,12.90
2018-07-28T15:25:53.794Z,13.30
2018-07-28T15:28:21.832Z,15.38
2018-07-28T15:30:49.873Z,12.28
2018-07-28T15:33:17.891Z,12.82
2018-07-28T15:35:45.928Z,11.60
2018-07-28T15:38:13.956Z,12.55
2018-07-28T15:40:41.999Z,13.55
2018-07-28T15:43:10.028Z,12.20
2018-07-28T15:45:38.060Z,12.73
2018-07-28T15:48:06.105Z,13.10
2018-07-28T15:50:34.192Z,13.60
2018-07-28T15:53:02.277Z,13.20
2018-07-28T15:55:30.280Z,12.50
2018-07-28T15:57:58.284Z,12.40
2018-07-28T16:00:26.317Z,12.90
2018-07-28T16:02:54.344Z,13.05
2018-07-28T16:05:22.363Z,13.95
2018-07-28T16:07:50.403Z,14.43
2018-07-28T16:10:18.436Z,14.87
2018-07-28T16:12:46.483Z,15.70
2018-07-28T16:15:14.500Z,14.47
2018-07-28T16:17:42.526Z,13.53
2018-07-28T16:20:10.580Z,14.28
2018-07-28T16:22:38.636Z,15.48
2018-07-28T16:25:06.428Z,14.50
2018-07-28T16:27:34.468Z,14.33
2018-07-28T16:30:02.469Z,14.73
2018-07-28T16:32:30.489Z,13.58
2018-07-28T16:34:58.511Z,15.70
2018-07-28T16:37:26.576Z,14.43
2018-07-28T16:39:54.584Z,12.27
2018-07-28T16:42:22.632Z,13.17
2018-07-28T16:44:50.753Z,12.30
2018-07-28T16:47:18.726Z,13.60
2018-07-28T16:49:46.732Z,14.58
2018-07-28T16:52:14.832Z,15.43
2018-07-28T16:54:42.599Z,15.68
2018-07-28T16:57:10.647Z,15.50
2018-07-28T16:59:38.689Z,16.97
2018-07-28T17:02:06.712Z,18.40
2018-07-28T17:04:34.748Z,17.10
2018-07-28T17:07:02.824Z,18.45
2018-07-28T17:09:30.600Z,19.92
2018-07-28T17:11:58.644Z,19.60
2018-07-28T17:14:26.660Z,19.30
2018-07-28T17:16:54.687Z,18.05
2018-07-28T17:19:22.755Z,17.40
2018-07-28T17:21:50.793Z,18.25
2018-07-28T17:24:18.625Z,17.70
2018-07-28T17:26:46.696Z,17.50
2018-07-28T17:29:14.707Z,18.42
2018-07-28T17:31:42.545Z,17.10
2018-07-28T17:34:10.576Z,16.10
2018-07-28T17:36:38.593Z,17.40
2018-07-28T17:39:07.728Z,18.30
2018-07-28T17:41:35.760Z,18.07
2018-07-28T17:44:03.813Z,17.45
2018-07-28T17:46:31.872Z,18.42
2018-07-28T17:48:59.898Z,18.62
2018-07-28T17:51:27.925Z,18.10
2018-07-28T17:53:55.944Z,18.80
2018-07-28T17:56:23.960Z,18.35
2018-07-28T17:58:51.987Z,17.87
2018-07-28T18:01:20.004Z,20.43
2018-07-28T18:03:48.013Z,19.15
2018-07-28T18:06:16.030Z,19.27
2018-07-28T18:08:44.041Z,18.82
2018-07-28T18:11:11.883Z,18.70
2018-07-28T18:13:39.944Z,19.20
2018-07-28T18:16:07.970Z,17.25
2018-07-28T18:18:35.997Z,17.55
2018-07-28T18:21:04.019Z,16.97
2018-07-28T18:23:32.062Z,18.52
2018-07-28T18:26:00.172Z,18.37
2018-07-28T18:28:28.212Z,18.45
2018-07-28T18:30:56.248Z,19.60
2018-07-28T18:33:24.289Z,19.87
2018-07-28T18:35:52.586Z,19.00
2018-07-28T18:38:20.620Z,19.00
2018-07-28T18:40:48.656Z,17.52
2018-07-28T18:43:16.734Z,17.02
2018-07-28T18:45:44.769Z,15.93
2018-07-28T18:48:12.787Z,17.50
2018-07-28T18:50:40.821Z,16.60
2018-07-28T18:53:08.831Z,16.73
2018-07-28T18:55:36.861Z,14.90
2018-07-28T18:58:05.261Z,16.27
2018-07-28T19:00:33.288Z,16.02
2018-07-28T19:03:01.376Z,14.85
2018-07-28T19:05:29.404Z,15.68
2018-07-28T19:07:57.449Z,18.32
2018-07-28T19:10:26.984Z,15.35
2018-07-28T19:13:00.588Z,14.20
2018-07-28T19:15:28.638Z,15.30
2018-07-28T19:18:02.047Z,14.80
2018-07-28T19:20:30.105Z,15.93
2018-07-28T19:23:03.559Z,13.58
2018-07-28T19:25:31.379Z,13.88
2018-07-28T19:28:04.836Z,13.30
2018-07-28T19:30:32.853Z,14.10
2018-07-28T19:33:01.008Z,14.47
2018-07-28T19:35:34.546Z,15.63
2018-07-28T19:38:02.596Z,13.13
2018-07-28T19:40:30.672Z,12.80
2018-07-28T19:42:58.702Z,12.82
2018-07-28T19:45:26.705Z,13.30
2018-07-28T19:47:54.736Z,13.10
2018-07-28T19:50:22.743Z,13.22
2018-07-28T19:52:50.774Z,14.00
2018-07-28T19:55:18.793Z,14.10
2018-07-28T19:57:46.821Z,12.60
2018-07-28T20:00:14.847Z,11.65
2018-07-28T20:02:42.991Z,10.23
2018-07-28T20:05:10.976Z,8.60
2018-07-28T20:07:38.990Z,8.10
2018-07-28T20:10:07.005Z,6.92
2018-07-28T20:12:35.015Z,6.45
2018-07-28T20:15:02.840Z,5.87
2018-07-28T20:17:30.848Z,5.50
2018-07-28T20:19:58.881Z,7.20
2018-07-28T20:22:26.927Z,4.70
2018-07-28T20:24:54.943Z,4.40
2018-07-28T20:27:22.965Z,4.10
2018-07-28T20:29:51.000Z,4.45
2018-07-28T20:32:18.832Z,8.60
2018-07-28T20:34:46.877Z,4.30
2018-07-28T20:37:14.883Z,4.20
2018-07-28T20:39:42.924Z,4.35
2018-07-28T20:42:10.993Z,4.10
2018-07-28T20:44:39.020Z,4.13
2018-07-28T20:47:08.947Z,4.40
2018-07-28T20:49:37.171Z,4.40
2018-07-28T20:52:05.215Z,4.00
2018-07-28T20:54:33.251Z,4.83
2018-07-28T20:57:01.312Z,4.87
2018-07-28T20:59:29.433Z,4.90
2018-07-28T21:01:57.428Z,4.83
2018-07-28T21:04:25.528Z,6.27
2018-07-28T21:06:53.463Z,5.35
2018-07-28T21:09:21.500Z,5.40
2018-07-28T21:11:49.502Z,5.60
2018-07-28T21:14:17.523Z,6.25
2018-07-28T21:16:45.652Z,6.25
2018-07-28T21:19:13.719Z,5.60
2018-07-28T21:21:41.785Z,5.90
2018-07-28T21:24:09.785Z,6.20
2018-07-28T21:26:37.812Z,6.37
2018-07-28T21:29:05.914Z,6.60
2018-07-28T21:31:33.890Z,6.55
2018-07-28T21:34:01.907Z,8.05
2018-07-28T21:36:29.928Z,6.80
2018-07-28T21:38:57.955Z,6.53
2018-07-28T21:41:25.999Z,6.70
2018-07-28T21:43:54.044Z,10.93
2018-07-28T21:46:21.926Z,6.95
2018-07-28T21:48:50.460Z,6.80
2018-07-28T21:51:18.632Z,6.30
2018-07-28T21:53:46.655Z,6.80
2018-07-28T21:56:14.700Z,6.87
2018-07-28T21:58:42.520Z,6.53
2018-07-28T22:01:16.425Z,6.40
2018-07-28T22:03:44.486Z,6.75
2018-07-28T22:06:12.523Z,6.22
2018-07-28T22:08:40.561Z,7.05
2018-07-28T22:11:08.600Z,6.90
2018-07-28T22:13:36.623Z,6.33
2018-07-28T22:16:04.775Z,6.00
2018-07-28T22:18:32.797Z,6.30
2018-07-28T22:21:00.840Z,7.05
2018-07-28T22:23:28.668Z,6.40
2018-07-28T22:25:56.775Z,10.18
2018-07-28T22:28:24.622Z,6.80
2018-07-28T22:30:52.667Z,6.60
2018-07-28T22:33:20.705Z,6.00
2018-07-28T22:35:48.740Z,6.17
2018-07-28T22:38:16.756Z,6.30
2018-07-28T22:40:44.787Z,6.20
2018-07-28T22:43:12.627Z,6.85
2018-07-28T22:45:40.671Z,6.70
2018-07-28T22:48:08.687Z,7.35
2018-07-28T22:50:36.527Z,7.67
2018-07-28T22:53:04.564Z,8.20
2018-07-28T22:55:32.585Z,9.13
2018-07-28T22:58:00.592Z,8.90
2018-07-28T23:00:28.647Z,8.88
2018-07-28T23:02:56.688Z,9.35
2018-07-28T23:05:24.743Z,10.10
2018-07-28T23:07:52.804Z,10.43
2018-07-28T23:10:20.863Z,10.40
2018-07-28T23:12:48.894Z,10.68
2018-07-28T23:15:16.725Z,11.00
2018-07-28T23:17:44.775Z,10.78
2018-07-28T23:20:12.804Z,12.00
2018-07-28T23:22:40.647Z,11.53
2018-07-28T23:25:08.900Z,11.07
2018-07-28T23:27:36.927Z,10.32
2018-07-28T23:30:07.714Z,9.65
2018-07-28T23:32:35.772Z,9.55
2018-07-28T23:35:03.809Z,9.35
2018-07-28T23:37:31.859Z,9.45
2018-07-28T23:39:59.947Z,9.10
2018-07-28T23:42:27.976Z,8.90
2018-07-28T23:44:56.016Z,8.60
2018-07-28T23:47:24.069Z,8.20
2018-07-28T23:49:52.090Z,7.85
2018-07-28T23:52:20.115Z,8.20
2018-07-28T23:54:48.145Z,7.78
2018-07-28T23:57:15.974Z,8.15
2018-07-28T23:59:44.008Z,7.55
